Caledonia, New York
Current Conditions -  °F | °C
As of 7:54 PM on Tuesday 25 Nov 2014 (Local Time) from KROC Reporting Station
Light Snow Light Snow  
Wind Chill: 26°   Ceiling: 3700
Heat Index: 35°   Visibility: 9mi
Dew Point: 30°   Wind: 15mph
Humidity: 82%   Direction: 270°W
Pressure: 30.13"   Gusts: NA
Location:  42.97°N, 77.85°W
Report Text: KROC 260054Z 27013KT 9SM -RASN FEW017 SCT025 OVC037 02/M01 A3013 RMK AO2 RAE23B43SNE23B43 SLP211 SCT V BKN P0000 T00171011
Loading
Personal Weather Stations






























Interactive Weather Map New forecast layout! Learn more

10-Day Weather Forecast

Advertisements
Track Severe Weather on mobile